Time;durP1;ratioP1;P1;durP2;ratioP2;P2;SDS_P1;SDS_P2;PMS_P1;PMS_P2;Temp;Humidity;BMP_temperature;BMP_pressure;BME280_temperature;BME280_humidity;BME280_pressure;Samples;Min_cycle;Max_cycle;Signal;HPM_P1;HPM_P2
2021/03/09 00:02:03;;;;;;;13.32;9.13;;;21.80;37.20;;;;;;5059056;28;20045;-79
2021/03/09 00:04:28;;;;;;;10.02;8.95;;;21.70;37.20;;;;;;5065263;28;20072;-80
2021/03/09 00:06:54;;;;;;;13.80;10.20;;;21.70;37.20;;;;;;5058068;28;20040;-80
2021/03/09 00:09:19;;;;;;;11.00;9.82;;;21.70;37.20;;;;;;5049335;28;20026;-80
2021/03/09 00:11:45;;;;;;;11.90;9.95;;;21.70;37.20;;;;;;5059805;28;20029;-79
2021/03/09 00:14:10;;;;;;;10.95;9.52;;;21.60;37.70;;;;;;5064654;28;20091;-79
2021/03/09 00:16:36;;;;;;;10.70;9.38;;;21.60;37.10;;;;;;5059328;28;20093;-79
2021/03/09 00:19:02;;;;;;;12.60;10.13;;;21.60;37.10;;;;;;5061419;28;20055;-81
2021/03/09 00:21:27;;;;;;;12.98;10.00;;;21.60;37.20;;;;;;5061167;28;20146;-80
2021/03/09 00:23:53;;;;;;;14.15;10.25;;;21.60;37.20;;;;;;5062019;28;20114;-80
2021/03/09 00:26:19;;;;;;;12.20;10.98;;;21.60;37.20;;;;;;5063515;28;20024;-79
2021/03/09 00:28:44;;;;;;;11.38;9.65;;;21.60;37.20;;;;;;5063945;28;20047;-79
2021/03/09 00:31:10;;;;;;;10.90;9.48;;;21.60;37.20;;;;;;5063636;28;20039;-81
2021/03/09 00:33:35;;;;;;;12.23;9.93;;;21.50;37.20;;;;;;5043970;28;20464;-79
2021/03/09 00:36:01;;;;;;;12.25;9.98;;;21.50;37.20;;;;;;5066682;28;20035;-79
2021/03/09 00:38:26;;;;;;;11.15;9.80;;;21.50;37.20;;;;;;5063037;28;20040;-81
2021/03/09 00:40:52;;;;;;;12.05;10.05;;;21.50;37.20;;;;;;5054386;28;20105;-81
2021/03/09 00:43:18;;;;;;;11.65;9.95;;;21.40;37.20;;;;;;5041296;28;20035;-80
2021/03/09 00:45:43;;;;;;;10.68;9.63;;;21.40;37.20;;;;;;5049471;28;20028;-80
2021/03/09 00:48:09;;;;;;;12.50;9.82;;;21.40;37.20;;;;;;5064109;28;20120;-80
2021/03/09 00:50:34;;;;;;;12.43;10.18;;;21.40;37.30;;;;;;5064345;28;20033;-80
2021/03/09 00:53:00;;;;;;;12.52;9.98;;;21.40;37.30;;;;;;5062638;28;20393;-80
2021/03/09 00:55:25;;;;;;;10.52;9.43;;;21.40;37.20;;;;;;5043900;28;20048;-80
2021/03/09 00:57:59;;;;;;;12.98;10.05;;;21.30;37.20;;;;;;5061477;28;20457;-80
2021/03/09 01:00:26;;;;;;;14.10;10.02;;;21.30;37.20;;;;;;5059312;28;20099;-79
2021/03/09 01:02:52;;;;;;;13.43;10.15;;;21.30;37.30;;;;;;5062336;28;20041;-81
2021/03/09 01:05:19;;;;;;;10.75;9.35;;;21.30;37.30;;;;;;5051310;28;20030;-80
2021/03/09 01:07:44;;;;;;;10.80;9.70;;;21.30;37.30;;;;;;5061247;28;20023;-81
2021/03/09 01:10:11;;;;;;;10.70;9.60;;;21.30;37.30;;;;;;5062191;28;20132;-81
2021/03/09 01:12:37;;;;;;;11.88;9.60;;;21.30;37.30;;;;;;5057747;28;20061;-79
2021/03/09 01:15:04;;;;;;;10.60;9.50;;;21.30;37.30;;;;;;5051645;28;20021;-81
2021/03/09 01:17:36;;;;;;;12.93;9.93;;;21.20;37.30;;;;;;5064204;28;20095;-80
2021/03/09 01:20:05;;;;;;;11.43;9.20;;;21.20;37.20;;;;;;5062040;28;20067;-80
2021/03/09 01:22:31;;;;;;;12.80;9.32;;;21.20;37.30;;;;;;5060518;28;20716;-80
2021/03/09 01:24:57;;;;;;;13.50;10.48;;;21.20;37.30;;;;;;5061650;28;20033;-80
2021/03/09 01:27:22;;;;;;;12.45;9.60;;;21.20;37.30;;;;;;5062289;28;20442;-80
2021/03/09 01:29:48;;;;;;;12.57;10.38;;;21.20;37.20;;;;;;5061915;28;20025;-79
2021/03/09 01:32:13;;;;;;;12.95;10.38;;;21.20;37.20;;;;;;5060821;28;20066;-78
2021/03/09 01:34:39;;;;;;;12.48;10.10;;;21.10;37.30;;;;;;5062266;28;20099;-79
2021/03/09 01:37:05;;;;;;;10.38;9.25;;;21.10;37.30;;;;;;5056365;28;20032;-78
2021/03/09 01:39:31;;;;;;;11.13;9.43;;;21.10;37.30;;;;;;5047755;28;20033;-78
2021/03/09 01:41:57;;;;;;;11.75;9.30;;;21.10;37.30;;;;;;5063554;28;20032;-78
2021/03/09 01:44:24;;;;;;;10.25;9.20;;;21.00;37.30;;;;;;5045817;28;20044;-78
2021/03/09 01:46:50;;;;;;;10.75;8.95;;;21.00;37.30;;;;;;5048096;28;20032;-78
2021/03/09 01:49:17;;;;;;;10.77;9.45;;;21.00;37.30;;;;;;5054331;28;20079;-78
2021/03/09 01:51:44;;;;;;;13.13;9.80;;;21.00;37.30;;;;;;5050573;28;20025;-78
2021/03/09 01:54:11;;;;;;;10.82;9.32;;;21.00;37.30;;;;;;5055318;28;20028;-79
2021/03/09 01:56:38;;;;;;;12.27;8.38;;;21.00;37.40;;;;;;5058712;28;20036;-79
2021/03/09 01:59:06;;;;;;;11.15;8.90;;;21.00;37.30;;;;;;5063850;28;20523;-78
2021/03/09 02:01:32;;;;;;;10.05;8.88;;;21.00;37.40;;;;;;5058529;28;20508;-78
2021/03/09 02:03:57;;;;;;;11.57;9.55;;;21.00;37.40;;;;;;5060489;28;20032;-78
2021/03/09 02:06:23;;;;;;;9.30;8.35;;;21.00;37.40;;;;;;5051381;28;20450;-78
2021/03/09 02:08:49;;;;;;;11.20;9.23;;;20.90;37.30;;;;;;5059082;28;20087;-78
2021/03/09 02:11:45;;;;;;;9.73;8.50;;;20.90;37.40;;;;;;5058494;28;20365;-78
2021/03/09 02:14:23;;;;;;;10.15;8.85;;;20.90;37.40;;;;;;5046470;28;20016;-79
2021/03/09 02:16:59;;;;;;;11.45;9.45;;;20.90;37.30;;;;;;5037603;28;20044;-79
2021/03/09 02:19:43;;;;;;;10.93;8.90;;;20.90;37.30;;;;;;5054441;28;20032;-78
2021/03/09 02:22:23;;;;;;;8.65;7.78;;;20.90;37.30;;;;;;5051109;28;20029;-79
2021/03/09 02:25:17;;;;;;;11.07;8.32;;;20.90;37.90;;;;;;5061968;28;20025;-79
2021/03/09 02:27:56;;;;;;;8.57;7.78;;;20.90;37.50;;;;;;5053034;28;20029;-79
2021/03/09 02:30:43;;;;;;;9.70;7.80;;;20.90;37.50;;;;;;5051273;28;20026;-79
2021/03/09 02:33:18;;;;;;;11.25;8.75;;;20.90;37.40;;;;;;5052461;28;20029;-79
2021/03/09 02:35:57;;;;;;;8.60;7.32;;;20.90;37.40;;;;;;5039505;28;20112;-79
2021/03/09 02:38:25;;;;;;;9.80;8.00;;;20.80;37.30;;;;;;5051234;28;20099;-79
2021/03/09 02:40:55;;;;;;;9.45;7.53;;;20.80;37.30;;;;;;5055704;28;20066;-79
2021/03/09 02:43:23;;;;;;;9.38;7.97;;;20.80;37.40;;;;;;5060996;28;20457;-79
2021/03/09 02:45:51;;;;;;;9.45;6.90;;;20.80;37.40;;;;;;5060009;28;20029;-79
2021/03/09 02:48:21;;;;;;;8.95;7.57;;;20.80;37.40;;;;;;5056845;28;20071;-80
2021/03/09 02:50:49;;;;;;;8.65;7.65;;;20.80;37.40;;;;;;5056413;28;20021;-79
2021/03/09 02:53:15;;;;;;;8.60;7.28;;;20.80;37.40;;;;;;5049513;28;20029;-81
2021/03/09 02:55:42;;;;;;;9.20;7.57;;;20.80;37.50;;;;;;5049042;28;20031;-79
2021/03/09 02:58:12;;;;;;;9.63;7.45;;;20.80;37.40;;;;;;5058559;28;20425;-80
2021/03/09 03:00:38;;;;;;;9.57;7.63;;;20.70;37.30;;;;;;5062878;28;20021;-79
2021/03/09 03:03:08;;;;;;;9.60;8.18;;;20.70;37.40;;;;;;5053425;28;20028;-80
2021/03/09 03:05:36;;;;;;;8.15;7.10;;;20.70;37.30;;;;;;5057679;28;20032;-80
2021/03/09 03:08:08;;;;;;;7.85;6.82;;;20.70;37.40;;;;;;5058447;28;20454;-79
2021/03/09 03:10:35;;;;;;;7.65;6.85;;;20.70;37.30;;;;;;5063861;28;20373;-79
2021/03/09 03:13:02;;;;;;;7.72;6.93;;;20.70;37.30;;;;;;5070768;28;20013;-79
2021/03/09 03:15:29;;;;;;;7.43;6.60;;;20.70;37.40;;;;;;5057240;28;20103;-79
2021/03/09 03:17:56;;;;;;;8.60;7.10;;;20.70;37.40;;;;;;5056314;28;20017;-79
2021/03/09 03:20:23;;;;;;;8.10;6.78;;;20.70;37.40;;;;;;5054977;28;20040;-79
2021/03/09 03:22:51;;;;;;;7.93;6.88;;;20.60;37.30;;;;;;5057888;28;20028;-79
2021/03/09 03:25:18;;;;;;;6.72;6.03;;;20.60;37.30;;;;;;5063148;28;20089;-78
2021/03/09 03:27:46;;;;;;;9.32;6.85;;;20.60;37.30;;;;;;5061789;28;20048;-79
2021/03/09 03:30:15;;;;;;;6.97;6.28;;;20.60;37.30;;;;;;5057073;28;20033;-78
2021/03/09 03:32:40;;;;;;;6.82;6.13;;;20.60;37.30;;;;;;5054465;28;20036;-78
2021/03/09 03:35:09;;;;;;;7.68;6.32;;;20.60;37.30;;;;;;5043555;28;20092;-78
2021/03/09 03:37:36;;;;;;;6.75;6.03;;;20.50;37.20;;;;;;5061649;28;20075;-79
2021/03/09 03:40:15;;;;;;;8.25;6.40;;;20.60;37.30;;;;;;5057737;28;20389;-78
2021/03/09 03:42:41;;;;;;;6.05;5.45;;;20.60;37.30;;;;;;5056664;28;20593;-78
2021/03/09 03:45:08;;;;;;;6.40;5.65;;;20.60;37.20;;;;;;5056990;28;20079;-78
2021/03/09 03:47:36;;;;;;;7.93;6.07;;;20.60;37.20;;;;;;5051376;28;20489;-79
2021/03/09 03:50:03;;;;;;;8.23;5.93;;;20.60;37.20;;;;;;5055516;28;20104;-79
2021/03/09 03:53:11;;;;;;;6.70;6.00;;;20.60;37.20;;;;;;5060326;28;20040;-79
2021/03/09 03:55:55;;;;;;;6.63;5.85;;;20.60;37.30;;;;;;5027342;28;20037;-81
2021/03/09 03:58:33;;;;;;;6.60;5.55;;;20.50;37.20;;;;;;5062176;28;20029;-80
2021/03/09 04:01:00;;;;;;;5.78;4.72;;;20.50;37.20;;;;;;5067698;28;20048;-81
2021/03/09 04:03:29;;;;;;;6.88;5.57;;;20.50;37.20;;;;;;5041576;28;20849;-81
2021/03/09 04:05:55;;;;;;;6.65;5.10;;;20.50;37.20;;;;;;5061972;28;20028;-80
2021/03/09 04:08:22;;;;;;;6.43;5.22;;;20.50;37.20;;;;;;5062552;28;20128;-81
2021/03/09 04:10:50;;;;;;;6.82;5.20;;;20.50;37.20;;;;;;5065789;28;20020;-82
2021/03/09 04:13:17;;;;;;;5.45;4.90;;;20.50;37.20;;;;;;5062653;28;20029;-82
2021/03/09 04:15:44;;;;;;;5.45;4.95;;;20.50;37.20;;;;;;5056760;28;20037;-81
2021/03/09 04:18:13;;;;;;;5.43;4.93;;;20.50;37.20;;;;;;5037192;28;20070;-81
2021/03/09 04:20:42;;;;;;;5.55;4.60;;;20.40;37.30;;;;;;5059378;28;20031;-81
2021/03/09 04:23:09;;;;;;;6.20;5.63;;;20.40;37.20;;;;;;5060978;28;20032;-81
2021/03/09 04:25:36;;;;;;;5.90;5.30;;;20.40;37.20;;;;;;5039690;28;20045;-82
2021/03/09 04:28:02;;;;;;;6.97;5.53;;;20.40;37.20;;;;;;5041779;28;20022;-82
2021/03/09 04:30:30;;;;;;;6.25;5.13;;;20.40;37.20;;;;;;5045797;28;20034;-82
2021/03/09 04:32:56;;;;;;;6.57;5.50;;;20.40;37.30;;;;;;5062585;28;20051;-81
2021/03/09 04:35:22;;;;;;;5.97;5.40;;;20.40;37.10;;;;;;5062203;28;20481;-81
2021/03/09 04:37:49;;;;;;;5.70;5.13;;;20.40;37.10;;;;;;5055526;28;20400;-82
2021/03/09 04:40:15;;;;;;;5.55;5.05;;;20.40;37.20;;;;;;5046135;28;20029;-81
2021/03/09 04:42:41;;;;;;;5.60;5.03;;;20.40;37.10;;;;;;5057798;28;20029;-82
2021/03/09 04:45:07;;;;;;;6.70;4.55;;;20.40;37.10;;;;;;5066557;28;20038;-79
2021/03/09 04:47:34;;;;;;;5.28;4.78;;;20.40;37.20;;;;;;5079831;28;20119;-80
2021/03/09 04:50:00;;;;;;;5.35;4.80;;;20.40;37.20;;;;;;5085625;28;20043;-80
2021/03/09 04:52:26;;;;;;;5.15;4.57;;;20.40;37.20;;;;;;5071566;28;20060;-80
2021/03/09 04:54:53;;;;;;;5.50;4.32;;;20.40;37.30;;;;;;5063950;28;20021;-79
2021/03/09 04:57:27;;;;;;;4.35;3.95;;;20.30;37.20;;;;;;5078985;28;20045;-80
2021/03/09 04:59:52;;;;;;;5.32;4.32;;;20.40;37.20;;;;;;5079305;28;20029;-79
2021/03/09 05:02:18;;;;;;;5.25;4.75;;;20.30;37.20;;;;;;5078098;28;20036;-79
2021/03/09 05:04:43;;;;;;;4.82;4.32;;;20.30;37.20;;;;;;5066672;28;20060;-81
2021/03/09 05:07:09;;;;;;;4.88;4.20;;;20.30;37.30;;;;;;5064947;28;20033;-81
2021/03/09 05:09:34;;;;;;;5.63;4.40;;;20.30;37.30;;;;;;5065215;28;20041;-80
2021/03/09 05:12:01;;;;;;;5.50;4.22;;;20.30;37.30;;;;;;5063888;28;20028;-80
2021/03/09 05:14:27;;;;;;;4.25;3.85;;;20.30;37.20;;;;;;5065671;28;20029;-80
2021/03/09 05:16:52;;;;;;;5.53;4.25;;;20.30;37.30;;;;;;5063993;28;20123;-81
2021/03/09 05:19:18;;;;;;;4.25;3.85;;;20.30;37.30;;;;;;5063622;28;20037;-81
2021/03/09 05:21:43;;;;;;;5.47;4.13;;;20.30;37.30;;;;;;5062803;28;20045;-79
2021/03/09 05:24:09;;;;;;;4.30;3.90;;;20.20;37.30;;;;;;5064211;28;20028;-81
2021/03/09 05:26:34;;;;;;;4.65;3.88;;;20.20;37.20;;;;;;5057707;28;20040;-81
2021/03/09 05:29:00;;;;;;;4.35;3.83;;;20.20;37.20;;;;;;5057829;28;20086;-80
2021/03/09 05:31:26;;;;;;;4.38;3.70;;;20.20;37.20;;;;;;5059912;28;20043;-80
2021/03/09 05:33:52;;;;;;;3.90;3.33;;;20.20;37.20;;;;;;5062707;28;20056;-80
2021/03/09 05:36:17;;;;;;;5.00;4.35;;;20.20;37.20;;;;;;5064369;28;20032;-80
2021/03/09 05:38:43;;;;;;;4.57;4.18;;;20.20;37.20;;;;;;5059580;28;20068;-81
2021/03/09 05:41:08;;;;;;;3.92;3.55;;;20.20;37.20;;;;;;5043804;28;20165;-80
2021/03/09 05:43:35;;;;;;;4.97;3.97;;;20.20;37.30;;;;;;5055666;28;20036;-81
2021/03/09 05:46:02;;;;;;;5.95;3.60;;;20.20;37.30;;;;;;5059963;28;20511;-80
2021/03/09 05:48:28;;;;;;;3.88;3.47;;;20.20;37.30;;;;;;5060149;28;20381;-81
2021/03/09 05:50:54;;;;;;;3.92;3.63;;;20.20;37.30;;;;;;5061657;28;20035;-82
2021/03/09 05:53:19;;;;;;;3.78;3.47;;;20.20;37.30;;;;;;5064366;28;20029;-81
2021/03/09 05:55:45;;;;;;;3.67;3.08;;;20.20;37.30;;;;;;5033746;28;20464;-81
2021/03/09 05:58:11;;;;;;;3.92;3.53;;;20.20;37.30;;;;;;5055640;28;20107;-81
2021/03/09 06:00:36;;;;;;;3.90;3.47;;;20.20;37.20;;;;;;5052780;28;20033;-81
2021/03/09 06:03:02;;;;;;;3.85;3.30;;;20.10;37.20;;;;;;5038275;28;20389;-81
2021/03/09 06:05:28;;;;;;;4.18;3.50;;;20.10;37.20;;;;;;5057825;28;20028;-81
2021/03/09 06:07:54;;;;;;;4.30;3.47;;;20.10;37.20;;;;;;5066277;28;20044;-79
2021/03/09 06:10:24;;;;;;;4.28;3.55;;;20.10;37.20;;;;;;5059592;28;20082;-81
2021/03/09 06:12:50;;;;;;;5.28;3.22;;;20.10;37.10;;;;;;5060180;28;20654;-81
2021/03/09 06:15:16;;;;;;;3.72;3.40;;;20.10;37.20;;;;;;5063767;28;20025;-79
2021/03/09 06:17:43;;;;;;;3.45;3.15;;;20.10;37.30;;;;;;5055390;28;20012;-81
2021/03/09 06:20:18;;;;;;;3.83;2.85;;;20.10;37.30;;;;;;5058835;28;20073;-81
2021/03/09 06:22:52;;;;;;;3.47;2.70;;;20.20;37.10;;;;;;5056708;28;20706;-82
2021/03/09 06:25:27;;;;;;;3.60;2.65;;;20.40;37.40;;;;;;5037072;28;20029;-81
2021/03/09 06:27:53;;;;;;;3.47;2.80;;;20.60;36.70;;;;;;5059391;28;20032;-81
2021/03/09 06:30:33;;;;;;;3.58;3.25;;;20.70;36.40;;;;;;5056996;28;20400;-80
2021/03/09 06:33:00;;;;;;;3.42;2.88;;;20.80;36.30;;;;;;5062688;28;20032;-81
2021/03/09 06:35:33;;;;;;;2.95;2.53;;;20.90;36.20;;;;;;5059783;28;20071;-80
2021/03/09 06:38:17;;;;;;;3.78;3.20;;;21.00;36.10;;;;;;5054980;28;20064;-81
2021/03/09 06:41:02;;;;;;;3.45;2.88;;;21.00;36.00;;;;;;5049326;28;20084;-81
2021/03/09 06:43:29;;;;;;;2.58;2.20;;;21.10;36.00;;;;;;5058656;28;20052;-80
2021/03/09 06:46:09;;;;;;;3.90;2.55;;;21.10;36.00;;;;;;5055255;28;20036;-80
2021/03/09 06:48:38;;;;;;;2.75;2.22;;;21.20;36.00;;;;;;5058804;28;20115;-80
2021/03/09 06:51:04;;;;;;;3.03;2.50;;;21.20;36.00;;;;;;5056065;28;20111;-80
2021/03/09 06:53:30;;;;;;;2.58;2.38;;;21.20;35.90;;;;;;5055719;28;20095;-80
2021/03/09 06:55:55;;;;;;;3.13;2.75;;;21.20;35.90;;;;;;5061701;28;20029;-80
2021/03/09 06:58:28;;;;;;;2.30;2.17;;;21.30;35.80;;;;;;5062150;28;20231;-80
2021/03/09 07:00:55;;;;;;;2.15;1.95;;;21.40;35.80;;;;;;5038353;28;20040;-79
2021/03/09 07:03:34;;;;;;;2.80;2.20;;;21.40;35.80;;;;;;5063927;28;20028;-80
2021/03/09 07:06:00;;;;;;;2.97;2.47;;;21.40;35.70;;;;;;5040946;28;20043;-80
2021/03/09 07:08:26;;;;;;;2.80;2.60;;;21.40;35.70;;;;;;5053885;28;20377;-81
2021/03/09 07:10:53;;;;;;;2.65;2.38;;;21.40;35.70;;;;;;5033522;28;20060;-80
2021/03/09 07:13:23;;;;;;;5.28;2.13;;;21.40;35.80;;;;;;5052669;28;20074;-81
2021/03/09 07:15:49;;;;;;;5.47;2.70;;;21.40;35.80;;;;;;5054985;28;20025;-79
2021/03/09 07:18:19;;;;;;;3.15;2.47;;;21.40;35.90;;;;;;5058465;28;20033;-79
2021/03/09 07:20:46;;;;;;;2.60;2.40;;;21.30;36.00;;;;;;5051002;28;20039;-79
2021/03/09 07:23:31;;;;;;;2.70;2.45;;;21.30;36.10;;;;;;5054735;28;20092;-80
2021/03/09 07:26:16;;;;;;;3.40;2.60;;;21.30;36.20;;;;;;5052493;28;20060;-80
2021/03/09 07:28:50;;;;;;;2.15;1.95;;;21.30;36.30;;;;;;5061267;28;20035;-79
2021/03/09 07:31:24;;;;;;;4.75;2.88;;;21.30;36.30;;;;;;5059939;28;20052;-77
2021/03/09 07:33:51;;;;;;;3.75;2.53;;;21.20;36.30;;;;;;5064393;28;20021;-79
2021/03/09 07:36:17;;;;;;;3.22;2.90;;;21.20;36.20;;;;;;5075750;28;20025;-79
2021/03/09 07:38:45;;;;;;;6.18;3.17;;;21.10;36.20;;;;;;5072356;28;20021;-77
2021/03/09 07:41:11;;;;;;;3.58;3.20;;;21.10;36.20;;;;;;5056250;28;20088;-78
2021/03/09 07:43:37;;;;;;;3.50;3.20;;;21.10;36.20;;;;;;5073634;28;20048;-78
2021/03/09 07:46:09;;;;;;;3.97;3.67;;;21.10;36.20;;;;;;5073536;28;20033;-77
2021/03/09 07:48:35;;;;;;;4.30;3.83;;;21.10;36.20;;;;;;5073035;28;20044;-78
2021/03/09 07:51:05;;;;;;;5.05;4.07;;;21.00;36.20;;;;;;5067148;28;20025;-80
2021/03/09 07:53:31;;;;;;;4.20;3.80;;;21.00;36.10;;;;;;5072143;28;20020;-80
2021/03/09 07:56:16;;;;;;;4.95;3.75;;;21.00;36.20;;;;;;5064999;28;20020;-81
2021/03/09 07:58:42;;;;;;;4.13;3.22;;;21.00;36.40;;;;;;5069264;28;20033;-81
2021/03/09 08:01:11;;;;;;;3.80;3.47;;;21.00;36.30;;;;;;5064091;28;20039;-80
2021/03/09 08:03:46;;;;;;;4.47;3.53;;;21.00;36.40;;;;;;5066723;28;20021;-81
2021/03/09 08:06:13;;;;;;;3.58;2.67;;;20.90;36.40;;;;;;5065674;28;20032;-80
2021/03/09 08:08:47;;;;;;;3.10;2.80;;;21.00;36.50;;;;;;5069909;28;20021;-80
2021/03/09 08:11:19;;;;;;;4.03;3.28;;;20.90;36.50;;;;;;5063014;28;20051;-81
2021/03/09 08:14:08;;;;;;;4.13;3.72;;;20.90;36.50;;;;;;5068564;28;20025;-80
2021/03/09 08:16:42;;;;;;;3.40;3.08;;;20.90;36.50;;;;;;5053382;28;20037;-80
2021/03/09 08:19:13;;;;;;;3.50;3.20;;;20.90;36.60;;;;;;5076529;28;20090;-78
2021/03/09 08:21:38;;;;;;;3.92;3.45;;;20.90;36.60;;;;;;5078746;28;20025;-78
2021/03/09 08:24:05;;;;;;;6.90;2.88;;;20.80;36.50;;;;;;5077678;28;20041;-80
2021/03/09 08:26:30;;;;;;;3.80;3.22;;;20.80;36.70;;;;;;5079840;28;20032;-78
2021/03/09 08:28:56;;;;;;;4.95;2.60;;;20.80;36.70;;;;;;5079180;28;20052;-80
2021/03/09 08:31:26;;;;;;;3.88;3.30;;;20.80;36.70;;;;;;5068503;28;20029;-80
2021/03/09 08:34:06;;;;;;;3.20;2.90;;;20.80;36.70;;;;;;5065271;28;20020;-82
2021/03/09 08:36:35;;;;;;;5.30;3.35;;;20.70;36.80;;;;;;5067891;28;20137;-82
2021/03/09 08:39:13;;;;;;;2.80;2.60;;;20.80;36.80;;;;;;5062098;28;20120;-82
2021/03/09 08:41:42;;;;;;;3.58;3.00;;;20.80;36.80;;;;;;5045358;28;20496;-82
2021/03/09 08:44:16;;;;;;;5.90;3.42;;;20.90;36.80;;;;;;5058261;28;20052;-81
2021/03/09 08:47:02;;;;;;;4.38;2.85;;;20.90;36.90;;;;;;5059244;28;20029;-82
2021/03/09 08:49:34;;;;;;;2.38;2.17;;;20.90;36.80;;;;;;5061435;28;20050;-81
2021/03/09 08:52:20;;;;;;;2.90;2.70;;;20.90;36.90;;;;;;5056205;28;20095;-80
2021/03/09 08:54:50;;;;;;;3.08;2.63;;;20.80;36.90;;;;;;5054197;28;20028;-78
2021/03/09 08:57:19;;;;;;;3.30;1.98;;;20.90;37.00;;;;;;5057571;28;20062;-80
2021/03/09 08:59:46;;;;;;;3.03;2.72;;;20.90;36.90;;;;;;5059053;28;20025;-79
2021/03/09 09:02:20;;;;;;;2.47;2.10;;;21.10;36.70;;;;;;5061591;28;20090;-80
2021/03/09 09:04:52;;;;;;;3.50;2.22;;;21.20;36.60;;;;;;5063241;28;20049;-79
2021/03/09 09:07:35;;;;;;;3.00;2.80;;;21.40;36.60;;;;;;5064524;28;20081;-84
2021/03/09 09:10:14;;;;;;;2.75;2.20;;;21.60;36.50;;;;;;5072258;28;20029;-82
2021/03/09 09:12:45;;;;;;;2.55;2.22;;;21.70;36.40;;;;;;5049548;28;20048;-84
2021/03/09 09:15:27;;;;;;;3.92;2.20;;;21.80;36.30;;;;;;5066583;28;20024;-84
2021/03/09 09:18:13;;;;;;;2.95;2.70;;;21.80;36.30;;;;;;5056470;28;20028;-84
2021/03/09 09:20:47;;;;;;;2.45;2.25;;;21.90;36.30;;;;;;5054581;28;20397;-84
2021/03/09 09:23:19;;;;;;;3.47;2.63;;;21.90;36.30;;;;;;5061630;28;20028;-84
2021/03/09 09:25:48;;;;;;;2.95;2.22;;;21.90;36.30;;;;;;5041770;28;20024;-80
2021/03/09 09:28:30;;;;;;;3.55;2.83;;;21.90;36.30;;;;;;5064437;28;20366;-80
2021/03/09 09:31:05;;;;;;;2.38;2.17;;;22.00;36.20;;;;;;5058976;28;20025;-82
2021/03/09 09:33:32;;;;;;;3.63;1.80;;;22.00;36.40;;;;;;5064416;28;20389;-81
2021/03/09 09:35:58;;;;;;;2.70;2.50;;;22.00;36.50;;;;;;5064129;28;20024;-82
2021/03/09 09:38:24;;;;;;;2.53;2.30;;;22.00;36.60;;;;;;5060771;28;20499;-80
2021/03/09 09:40:53;;;;;;;3.50;2.45;;;21.90;36.50;;;;;;5062320;28;20047;-81
2021/03/09 09:43:20;;;;;;;2.50;2.30;;;21.90;37.20;;;;;;5058153;28;20043;-82
2021/03/09 09:45:49;;;;;;;2.45;2.05;;;21.90;36.60;;;;;;5041882;28;20024;-81
2021/03/09 09:48:26;;;;;;;2.45;2.10;;;21.80;36.70;;;;;;5061266;28;20470;-80
2021/03/09 09:50:54;;;;;;;2.90;2.30;;;21.80;36.80;;;;;;5058533;28;20021;-82
2021/03/09 09:53:30;;;;;;;2.65;2.45;;;21.80;37.00;;;;;;5055962;28;20024;-81
2021/03/09 09:55:56;;;;;;;2.40;1.88;;;21.70;37.00;;;;;;5057923;28;20024;-81
2021/03/09 09:58:22;;;;;;;3.72;2.10;;;21.70;37.20;;;;;;5061590;28;20469;-84
2021/03/09 10:00:55;;;;;;;3.13;2.60;;;21.80;37.20;;;;;;5058625;28;20020;-83
2021/03/09 10:03:21;;;;;;;2.30;2.10;;;21.80;39.60;;;;;;5059087;28;20047;-82
2021/03/09 10:05:47;;;;;;;2.38;2.17;;;21.80;39.20;;;;;;5059803;28;20493;-82
2021/03/09 10:08:33;;;;;;;6.20;2.60;;;21.80;39.20;;;;;;5045084;28;20028;-82
2021/03/09 10:11:01;;;;;;;2.78;2.47;;;21.80;39.30;;;;;;5061088;28;20020;-81
2021/03/09 10:13:27;;;;;;;3.22;2.72;;;21.80;39.10;;;;;;5058393;28;20057;-81
2021/03/09 10:15:52;;;;;;;2.33;2.13;;;21.70;39.10;;;;;;5059373;28;20059;-81
2021/03/09 10:18:26;;;;;;;2.95;2.58;;;21.70;39.20;;;;;;5059602;28;20362;-80
2021/03/09 10:21:05;;;;;;;2.30;2.10;;;21.70;39.40;;;;;;5060336;28;20024;-82
2021/03/09 10:23:57;;;;;;;2.75;2.55;;;21.70;39.40;;;;;;5046678;28;20052;-84
2021/03/09 10:26:36;;;;;;;4.53;2.58;;;21.80;39.30;;;;;;5048238;28;20392;-83
2021/03/09 10:29:17;;;;;;;2.92;2.40;;;21.70;39.10;;;;;;5060088;28;20044;-81
2021/03/09 10:31:57;;;;;;;3.05;1.85;;;21.70;39.30;;;;;;5042390;28;20036;-87
2021/03/09 10:34:39;;;;;;;2.70;2.25;;;21.80;39.20;;;;;;5041011;28;20025;-86
2021/03/09 10:37:39;;;;;;;2.10;1.90;;;21.80;39.00;;;;;;5045099;28;20089;-86
2021/03/09 10:40:06;;;;;;;2.67;2.30;;;21.70;39.30;;;;;;5052867;28;20049;-86
2021/03/09 10:42:46;;;;;;;2.40;2.17;;;21.70;39.30;;;;;;5059993;28;20033;-88
2021/03/09 10:45:15;;;;;;;2.17;2.00;;;21.70;39.40;;;;;;5058177;28;20032;-87
2021/03/09 10:47:49;;;;;;;1.73;1.58;;;21.70;39.40;;;;;;5060077;28;20440;-85
2021/03/09 10:50:16;;;;;;;2.05;1.88;;;21.70;39.40;;;;;;5056322;28;20492;-80
2021/03/09 10:52:41;;;;;;;1.88;1.38;;;21.60;39.30;;;;;;5057666;28;20408;-83
2021/03/09 10:55:07;;;;;;;2.25;2.05;;;21.70;39.40;;;;;;5058698;28;20033;-84
2021/03/09 10:57:33;;;;;;;2.13;1.90;;;21.70;39.20;;;;;;5060775;28;20104;-86
2021/03/09 10:59:58;;;;;;;2.38;2.17;;;21.70;39.10;;;;;;5054497;28;20722;-80
2021/03/09 11:02:24;;;;;;;1.92;1.83;;;21.70;39.20;;;;;;5059857;28;20044;-83
2021/03/09 11:04:50;;;;;;;3.20;2.53;;;21.80;39.40;;;;;;5068478;28;20040;-82
2021/03/09 11:07:15;;;;;;;2.97;2.28;;;21.70;39.50;;;;;;5043590;28;20087;-78
2021/03/09 11:09:42;;;;;;;2.47;2.22;;;21.60;39.60;;;;;;5061648;28;20029;-81
2021/03/09 11:12:08;;;;;;;2.45;2.25;;;21.50;39.80;;;;;;5057590;28;20024;-80
2021/03/09 11:14:33;;;;;;;7.38;2.45;;;21.60;39.80;;;;;;5054488;28;20393;-81
2021/03/09 11:16:59;;;;;;;2.42;2.22;;;21.50;39.80;;;;;;5054588;28;20091;-81
2021/03/09 11:19:24;;;;;;;2.00;1.88;;;21.50;39.70;;;;;;5058137;28;20040;-82
2021/03/09 11:21:50;;;;;;;5.70;2.33;;;21.50;39.60;;;;;;5040150;28;20029;-83
2021/03/09 11:24:16;;;;;;;2.28;2.08;;;21.50;39.50;;;;;;5060585;28;20035;-82
2021/03/09 11:26:41;;;;;;;2.50;2.30;;;21.50;39.50;;;;;;5058222;28;20033;-81
2021/03/09 11:29:07;;;;;;;4.68;2.38;;;21.60;39.50;;;;;;5062518;28;20028;-81
2021/03/09 11:31:33;;;;;;;3.25;1.85;;;21.50;39.60;;;;;;5063317;28;20048;-81
2021/03/09 11:33:59;;;;;;;4.10;2.38;;;21.40;39.80;;;;;;5064395;28;20036;-81
2021/03/09 11:36:24;;;;;;;3.00;2.70;;;21.40;39.90;;;;;;5059481;28;20480;-82
2021/03/09 11:38:50;;;;;;;2.95;2.00;;;21.40;39.90;;;;;;5060360;28;20025;-80
2021/03/09 11:41:19;;;;;;;2.08;1.88;;;21.40;40.00;;;;;;5060574;28;20115;-79
2021/03/09 11:43:46;;;;;;;3.08;2.60;;;21.40;39.90;;;;;;5060273;28;20033;-79
2021/03/09 11:46:12;;;;;;;2.95;2.40;;;21.40;40.00;;;;;;5059170;28;20373;-82
2021/03/09 11:48:38;;;;;;;2.42;2.15;;;21.40;40.00;;;;;;5060792;28;20024;-81
2021/03/09 11:51:05;;;;;;;2.70;2.22;;;21.40;40.10;;;;;;5062959;28;20106;-81
2021/03/09 11:53:31;;;;;;;2.70;2.50;;;21.40;40.10;;;;;;5061764;28;20070;-82
2021/03/09 11:55:57;;;;;;;3.13;2.35;;;21.40;40.00;;;;;;5059278;28;20036;-80
2021/03/09 11:58:23;;;;;;;3.47;2.60;;;21.40;40.00;;;;;;5056940;28;20032;-79
2021/03/09 12:00:48;;;;;;;2.50;2.30;;;21.40;40.00;;;;;;5057310;28;20075;-79
2021/03/09 12:03:14;;;;;;;2.47;2.28;;;21.40;39.70;;;;;;5061289;28;20094;-80
2021/03/09 12:05:40;;;;;;;2.72;1.70;;;21.40;39.80;;;;;;5061424;28;20115;-81
2021/03/09 12:08:05;;;;;;;3.42;2.15;;;21.50;39.80;;;;;;5059781;28;20025;-81
2021/03/09 12:10:32;;;;;;;1.90;1.70;;;21.70;39.40;;;;;;5060198;28;20412;-82
2021/03/09 12:12:58;;;;;;;1.73;1.58;;;21.80;39.30;;;;;;5060970;28;20672;-80
2021/03/09 12:15:23;;;;;;;2.05;1.88;;;22.00;39.10;;;;;;5043437;28;20025;-82
2021/03/09 12:17:49;;;;;;;3.03;1.92;;;22.00;38.90;;;;;;5063448;28;20028;-79
2021/03/09 12:20:15;;;;;;;2.47;2.05;;;22.20;38.90;;;;;;5058251;28;20107;-81
2021/03/09 12:22:40;;;;;;;2.17;2.03;;;22.20;39.00;;;;;;5040857;28;20029;-82
2021/03/09 12:25:07;;;;;;;2.05;1.85;;;22.20;38.80;;;;;;5059582;28;20033;-81
2021/03/09 12:27:35;;;;;;;2.13;1.92;;;22.40;38.70;;;;;;5062996;28;20043;-82
2021/03/09 12:30:02;;;;;;;1.83;1.73;;;22.40;38.60;;;;;;5061580;28;20117;-83
2021/03/09 12:32:28;;;;;;;2.10;1.85;;;22.50;38.70;;;;;;5055848;28;20067;-82
2021/03/09 12:34:54;;;;;;;2.40;2.20;;;22.50;38.60;;;;;;5044239;28;20028;-82
2021/03/09 12:37:19;;;;;;;2.53;2.33;;;22.40;38.80;;;;;;5050956;28;20033;-79
2021/03/09 12:39:45;;;;;;;2.10;1.90;;;22.30;38.60;;;;;;5062869;28;20035;-80
2021/03/09 12:42:10;;;;;;;3.38;2.50;;;22.30;38.90;;;;;;5064467;28;20447;-87
2021/03/09 12:44:36;;;;;;;4.93;2.50;;;22.40;38.90;;;;;;5068028;28;20032;-81
2021/03/09 12:47:02;;;;;;;2.30;1.75;;;22.40;39.00;;;;;;5064872;28;20041;-83
2021/03/09 12:49:27;;;;;;;2.85;2.53;;;22.40;39.00;;;;;;5059093;28;20488;-82
2021/03/09 12:51:53;;;;;;;3.40;2.95;;;22.30;38.80;;;;;;5063464;28;20050;-83
2021/03/09 12:54:19;;;;;;;3.33;3.03;;;22.30;38.90;;;;;;5060009;28;20512;-81
2021/03/09 12:56:44;;;;;;;3.25;2.95;;;22.30;38.90;;;;;;5064093;28;20094;-81